Presidente Vargas, Brazil
Current Conditions -  °F | °C
As of 1:00 PM on Saturday 22 Nov 2014 (Local Time) from SBSL Reporting Station
Scattered Clouds Scattered Clouds  
Wind Chill: 90°   Ceiling: Unl
Heat Index: 93°   Visibility: 6mi
Dew Point: 68°   Wind: 16mph
Humidity: 49%   Direction: 60°ENE
Pressure: 29.83"   Gusts: NA
Location:  3.41°S, 44.02°W
Report Text: SBSL 221600Z 06014KT 9999 SCT020 32/20 Q1010
Loading
Personal Weather Stations






























Interactive Weather Map New forecast layout! Learn more

10-Day Weather Forecast

Advertisements
Track Severe Weather on mobile